AFL1454 UUEE-UIUU
Flight info
| Callsign | AFL1454 |
|---|---|
| Flight time | 5h 6m |
| Altitude | 33000 |
| Route | K0830F330 DCT RILPO T753 AGBIR T783 BALOB N155 SUNAD/K0825F350 N155 UNISO L870 HMN B228 TODES R497 KUMOD N869 RO A817 SUKOR A91 KA A806 OSTUN OSTUN1L |
| Aircraft | B738/M-SADIE2E3FGHJ1RWY/LB1U1 |
Departure
| Time | 2026-05-07 07:26 |
|---|---|
| Airport | Sheremetyevo International Airport (UUEE) |
Arrival
| Time | 2026-05-07 12:32 |
|---|---|
| Airport | Baikal International Airport (UIUU) |
| Time | Latitude | Longitude | Altitude | Speed | Heading |
|---|---|---|---|---|---|
| 2026-05-07 07:07 | 55.97804 | 37.41895 | 638 ft | 0 kts | 304° |
| 2026-05-07 07:17 | 55.97802 | 37.41900 | 638 ft | 3 kts | 305° |
| 2026-05-07 07:17 | 55.97786 | 37.41935 | 638 ft | 4 kts | 324° |
| 2026-05-07 07:17 | 55.97763 | 37.41955 | 639 ft | 4 kts | 356° |
| 2026-05-07 07:18 | 55.97741 | 37.41946 | 638 ft | 4 kts | 56° |
| 2026-05-07 07:18 | 55.97737 | 37.41934 | 638 ft | 1 kts | 75° |
| 2026-05-07 07:21 | 55.97737 | 37.41935 | 638 ft | 0 kts | 75° |
| 2026-05-07 07:21 | 55.97739 | 37.41949 | 638 ft | 2 kts | 75° |
| 2026-05-07 07:21 | 55.97744 | 37.41984 | 638 ft | 4 kts | 75° |
| 2026-05-07 07:21 | 55.97753 | 37.42042 | 638 ft | 6 kts | 75° |
| 2026-05-07 07:22 | 55.97742 | 37.42106 | 640 ft | 6 kts | 141° |
| 2026-05-07 07:22 | 55.97703 | 37.42131 | 640 ft | 6 kts | 163° |
| 2026-05-07 07:22 | 55.97686 | 37.42191 | 638 ft | 6 kts | 85° |
| 2026-05-07 07:22 | 55.97696 | 37.42265 | 639 ft | 6 kts | 75° |
| 2026-05-07 07:23 | 55.97707 | 37.42338 | 643 ft | 6 kts | 75° |
| 2026-05-07 07:23 | 55.97718 | 37.42410 | 638 ft | 6 kts | 75° |
| 2026-05-07 07:23 | 55.97729 | 37.42481 | 638 ft | 6 kts | 75° |
| 2026-05-07 07:23 | 55.97740 | 37.42557 | 638 ft | 7 kts | 75° |
| 2026-05-07 07:24 | 55.97752 | 37.42639 | 639 ft | 7 kts | 75° |
| 2026-05-07 07:24 | 55.97764 | 37.42727 | 638 ft | 7 kts | 88° |
| 2026-05-07 07:24 | 55.97734 | 37.42793 | 639 ft | 7 kts | 156° |
| 2026-05-07 07:24 | 55.97686 | 37.42818 | 637 ft | 7 kts | 165° |
| 2026-05-07 07:25 | 55.97597 | 37.42779 | 641 ft | 8 kts | 253° |
| 2026-05-07 07:25 | 55.97573 | 37.42625 | 640 ft | 34 kts | 255° |
| 2026-05-07 07:25 | 55.97447 | 37.41782 | 636 ft | 104 kts | 255° |
| 2026-05-07 07:26 | 55.97205 | 37.40175 | 638 ft | 162 kts | 253° |
| 2026-05-07 07:26 | 55.96887 | 37.38068 | 1062 ft | 179 kts | 254° |
| 2026-05-07 07:26 | 55.96563 | 37.35911 | 1850 ft | 185 kts | 253° |
| 2026-05-07 07:26 | 55.96257 | 37.33752 | 2729 ft | 165 kts | 251° |
| 2026-05-07 07:27 | 55.95948 | 37.31828 | 3384 ft | 161 kts | 252° |
| 2026-05-07 07:27 | 55.95634 | 37.29899 | 3829 ft | 162 kts | 252° |
| 2026-05-07 07:27 | 55.95304 | 37.27838 | 3970 ft | 183 kts | 252° |
| 2026-05-07 07:27 | 55.94941 | 37.25583 | 4111 ft | 196 kts | 253° |
| 2026-05-07 07:28 | 55.94554 | 37.23163 | 4250 ft | 211 kts | 253° |
| 2026-05-07 07:28 | 55.94141 | 37.20563 | 4466 ft | 224 kts | 253° |
| 2026-05-07 07:28 | 55.93694 | 37.17769 | 4664 ft | 242 kts | 253° |
| 2026-05-07 07:28 | 55.93234 | 37.14856 | 5166 ft | 246 kts | 253° |
| 2026-05-07 07:29 | 55.92765 | 37.11900 | 5731 ft | 249 kts | 253° |
| 2026-05-07 07:29 | 55.92293 | 37.08927 | 6331 ft | 251 kts | 253° |
| 2026-05-07 07:29 | 55.91815 | 37.05924 | 6891 ft | 252 kts | 254° |
| 2026-05-07 07:29 | 55.91667 | 37.02800 | 7425 ft | 258 kts | 278° |
| 2026-05-07 07:30 | 55.92320 | 36.99799 | 8036 ft | 265 kts | 298° |
| 2026-05-07 07:30 | 55.93585 | 36.97355 | 8656 ft | 276 kts | 318° |
| 2026-05-07 07:30 | 55.95170 | 36.95383 | 9312 ft | 278 kts | 319° |
| 2026-05-07 07:30 | 55.96778 | 36.93425 | 9867 ft | 281 kts | 320° |
| 2026-05-07 07:31 | 55.98614 | 36.92074 | 9921 ft | 295 kts | 348° |
| 2026-05-07 07:31 | 56.00701 | 36.92233 | 10144 ft | 309 kts | 5° |
| 2026-05-07 07:31 | 56.02797 | 36.93623 | 10258 ft | 338 kts | 30° |
| 2026-05-07 07:31 | 56.04733 | 36.96241 | 10423 ft | 358 kts | 37° |
| 2026-05-07 07:32 | 56.06681 | 36.99214 | 10557 ft | 377 kts | 39° |
| 2026-05-07 07:32 | 56.08688 | 37.02378 | 10785 ft | 391 kts | 39° |
| 2026-05-07 07:32 | 56.10745 | 37.05639 | 11223 ft | 397 kts | 39° |
| 2026-05-07 07:32 | 56.12793 | 37.08873 | 11820 ft | 399 kts | 39° |
| 2026-05-07 07:33 | 56.14883 | 37.12157 | 12403 ft | 401 kts | 39° |
| 2026-05-07 07:33 | 56.16998 | 37.15461 | 12965 ft | 405 kts | 39° |
| 2026-05-07 07:33 | 56.19133 | 37.18787 | 13542 ft | 409 kts | 38° |
| 2026-05-07 07:33 | 56.21290 | 37.22143 | 14088 ft | 412 kts | 38° |
| 2026-05-07 07:34 | 56.23460 | 37.25523 | 14658 ft | 414 kts | 38° |
| 2026-05-07 07:34 | 56.25642 | 37.28924 | 15216 ft | 417 kts | 38° |
| 2026-05-07 07:34 | 56.27838 | 37.32351 | 15790 ft | 419 kts | 38° |
| 2026-05-07 07:34 | 56.30051 | 37.35807 | 16354 ft | 422 kts | 38° |
| 2026-05-07 07:35 | 56.32272 | 37.39282 | 16885 ft | 425 kts | 38° |
| 2026-05-07 07:35 | 56.34513 | 37.42795 | 17423 ft | 428 kts | 38° |
| 2026-05-07 07:35 | 56.36773 | 37.46344 | 17929 ft | 432 kts | 38° |
| 2026-05-07 07:35 | 56.39047 | 37.49922 | 18406 ft | 435 kts | 38° |
| 2026-05-07 07:36 | 56.41331 | 37.53522 | 18914 ft | 437 kts | 38° |
| 2026-05-07 07:36 | 56.43630 | 37.57150 | 19362 ft | 440 kts | 38° |
| 2026-05-07 07:36 | 56.45931 | 37.60789 | 19814 ft | 443 kts | 38° |
| 2026-05-07 07:36 | 56.48262 | 37.64482 | 20293 ft | 445 kts | 38° |
| 2026-05-07 07:37 | 56.50595 | 37.68183 | 20730 ft | 447 kts | 38° |
| 2026-05-07 07:37 | 56.52939 | 37.71908 | 21150 ft | 449 kts | 38° |
| 2026-05-07 07:37 | 56.55291 | 37.75651 | 21592 ft | 452 kts | 39° |
| 2026-05-07 07:37 | 56.57658 | 37.79427 | 22028 ft | 454 kts | 39° |
| 2026-05-07 07:38 | 56.60029 | 37.83214 | 22433 ft | 456 kts | 39° |
| 2026-05-07 07:38 | 56.62421 | 37.87043 | 22832 ft | 459 kts | 39° |
| 2026-05-07 07:38 | 56.64827 | 37.90896 | 23265 ft | 463 kts | 39° |
| 2026-05-07 07:38 | 56.67243 | 37.94774 | 23642 ft | 465 kts | 39° |
| 2026-05-07 07:39 | 56.69672 | 37.98685 | 24013 ft | 466 kts | 39° |
| 2026-05-07 07:39 | 56.72019 | 38.02469 | 24349 ft | 468 kts | 39° |
| 2026-05-07 07:39 | 56.74462 | 38.06413 | 24650 ft | 470 kts | 39° |
| 2026-05-07 07:39 | 56.76894 | 38.10433 | 24956 ft | 474 kts | 41° |
| 2026-05-07 07:40 | 56.79213 | 38.14719 | 25260 ft | 476 kts | 44° |
| 2026-05-07 07:40 | 56.81467 | 38.19172 | 25572 ft | 479 kts | 45° |
| 2026-05-07 07:40 | 56.83698 | 38.23698 | 25871 ft | 481 kts | 46° |
| 2026-05-07 07:40 | 56.85895 | 38.28343 | 26104 ft | 485 kts | 48° |
| 2026-05-07 07:41 | 56.88009 | 38.33182 | 26368 ft | 488 kts | 50° |
| 2026-05-07 07:41 | 56.90076 | 38.38109 | 26666 ft | 490 kts | 51° |
| 2026-05-07 07:41 | 56.92140 | 38.43097 | 26957 ft | 491 kts | 51° |
| 2026-05-07 07:41 | 56.94202 | 38.48081 | 27216 ft | 493 kts | 51° |
| 2026-05-07 07:42 | 56.96286 | 38.53094 | 27498 ft | 495 kts | 50° |
| 2026-05-07 07:42 | 56.98386 | 38.58120 | 27752 ft | 497 kts | 50° |
| 2026-05-07 07:42 | 57.00495 | 38.63146 | 27997 ft | 499 kts | 50° |
| 2026-05-07 07:42 | 57.02588 | 38.68128 | 28325 ft | 499 kts | 50° |
| 2026-05-07 07:43 | 57.04707 | 38.73176 | 28653 ft | 499 kts | 50° |
| 2026-05-07 07:43 | 57.06826 | 38.78230 | 29013 ft | 499 kts | 50° |
| 2026-05-07 07:43 | 57.08936 | 38.83275 | 29376 ft | 497 kts | 50° |
| 2026-05-07 07:43 | 57.11039 | 38.88314 | 29748 ft | 497 kts | 50° |
| 2026-05-07 07:44 | 57.13142 | 38.93363 | 30052 ft | 497 kts | 50° |
| 2026-05-07 07:44 | 57.15240 | 38.98417 | 30320 ft | 496 kts | 50° |
| 2026-05-07 07:44 | 57.17335 | 39.03471 | 30619 ft | 496 kts | 51° |
| 2026-05-07 07:44 | 57.19421 | 39.08519 | 30913 ft | 495 kts | 51° |
| 2026-05-07 07:45 | 57.21505 | 39.13571 | 31158 ft | 496 kts | 51° |
| 2026-05-07 07:45 | 57.23593 | 39.18643 | 31330 ft | 498 kts | 51° |
| 2026-05-07 07:45 | 57.25686 | 39.23737 | 31633 ft | 496 kts | 51° |
| 2026-05-07 07:45 | 57.27752 | 39.28783 | 32043 ft | 491 kts | 51° |
| 2026-05-07 07:46 | 57.29808 | 39.33810 | 32352 ft | 489 kts | 51° |
| 2026-05-07 07:46 | 57.31862 | 39.38839 | 32614 ft | 489 kts | 51° |
| 2026-05-07 07:46 | 57.33912 | 39.43866 | 32811 ft | 490 kts | 51° |
| 2026-05-07 07:46 | 57.35961 | 39.48903 | 32971 ft | 491 kts | 51° |
| 2026-05-07 07:47 | 57.38019 | 39.53975 | 32950 ft | 493 kts | 51° |
| 2026-05-07 07:47 | 57.42146 | 39.64175 | 32962 ft | 494 kts | 51° |
| 2026-05-07 07:48 | 57.46222 | 39.74300 | 32950 ft | 486 kts | 51° |
| 2026-05-07 07:48 | 57.50250 | 39.84341 | 32992 ft | 487 kts | 51° |
| 2026-05-07 07:49 | 57.54326 | 39.94537 | 33008 ft | 494 kts | 51° |
| 2026-05-07 07:49 | 57.58435 | 40.04871 | 32981 ft | 500 kts | 51° |
| 2026-05-07 07:50 | 57.62564 | 40.15300 | 32988 ft | 499 kts | 52° |
| 2026-05-07 07:50 | 57.66674 | 40.25727 | 32979 ft | 497 kts | 52° |
| 2026-05-07 07:51 | 57.70760 | 40.36141 | 32999 ft | 496 kts | 52° |
| 2026-05-07 07:51 | 57.74821 | 40.46536 | 32998 ft | 494 kts | 52° |
| 2026-05-07 07:52 | 57.78864 | 40.56924 | 33027 ft | 493 kts | 52° |
| 2026-05-07 07:52 | 57.82900 | 40.67340 | 33037 ft | 494 kts | 52° |
| 2026-05-07 07:53 | 57.86910 | 40.77733 | 33020 ft | 495 kts | 52° |
| 2026-05-07 07:53 | 57.90940 | 40.88229 | 33035 ft | 495 kts | 52° |
| 2026-05-07 07:54 | 57.94955 | 40.98727 | 33038 ft | 494 kts | 52° |
| 2026-05-07 07:54 | 57.98957 | 41.09233 | 33048 ft | 494 kts | 52° |
| 2026-05-07 07:55 | 58.02950 | 41.19765 | 33055 ft | 494 kts | 52° |
| 2026-05-07 07:55 | 58.06937 | 41.30332 | 33046 ft | 494 kts | 52° |
| 2026-05-07 07:56 | 58.10924 | 41.40946 | 33085 ft | 495 kts | 52° |
| 2026-05-07 07:56 | 58.14904 | 41.51586 | 33064 ft | 495 kts | 52° |
| 2026-05-07 07:57 | 58.18878 | 41.62259 | 33074 ft | 496 kts | 53° |
| 2026-05-07 07:57 | 58.22837 | 41.73002 | 33076 ft | 497 kts | 53° |
| 2026-05-07 07:58 | 58.26815 | 41.83761 | 33079 ft | 498 kts | 53° |
| 2026-05-07 07:58 | 58.30792 | 41.94554 | 33089 ft | 499 kts | 53° |
| 2026-05-07 07:59 | 58.34760 | 42.05395 | 33098 ft | 499 kts | 53° |
| 2026-05-07 07:59 | 58.38722 | 42.16268 | 33092 ft | 500 kts | 53° |
| 2026-05-07 08:00 | 58.42668 | 42.27160 | 33089 ft | 500 kts | 53° |
| 2026-05-07 08:00 | 58.46611 | 42.38093 | 33140 ft | 499 kts | 53° |
| 2026-05-07 08:01 | 58.50536 | 42.49032 | 33110 ft | 499 kts | 53° |
| 2026-05-07 08:01 | 58.54456 | 42.59998 | 33128 ft | 499 kts | 53° |
| 2026-05-07 08:02 | 58.58361 | 42.70974 | 33110 ft | 499 kts | 53° |
| 2026-05-07 08:02 | 58.62256 | 42.81974 | 33126 ft | 498 kts | 53° |
| 2026-05-07 08:03 | 58.66116 | 42.92925 | 33139 ft | 499 kts | 53° |
| 2026-05-07 08:03 | 58.70020 | 43.04049 | 33136 ft | 499 kts | 53° |
| 2026-05-07 08:04 | 58.73875 | 43.15082 | 33128 ft | 500 kts | 53° |
| 2026-05-07 08:04 | 58.77750 | 43.26233 | 33118 ft | 501 kts | 54° |
| 2026-05-07 08:05 | 58.81618 | 43.37417 | 33146 ft | 502 kts | 53° |
| 2026-05-07 08:05 | 58.84862 | 43.46838 | 33115 ft | 503 kts | 53° |
| 2026-05-07 08:06 | 58.88733 | 43.58126 | 33122 ft | 504 kts | 54° |
| 2026-05-07 08:06 | 58.92549 | 43.69316 | 33120 ft | 504 kts | 54° |
| 2026-05-07 08:07 | 58.96404 | 43.80660 | 33112 ft | 504 kts | 54° |
| 2026-05-07 08:07 | 59.00242 | 43.92011 | 33131 ft | 504 kts | 53° |
| 2026-05-07 08:08 | 59.04088 | 44.03443 | 33132 ft | 507 kts | 54° |
| 2026-05-07 08:08 | 59.07945 | 44.14962 | 33111 ft | 508 kts | 54° |
| 2026-05-07 08:09 | 59.11782 | 44.26480 | 33102 ft | 507 kts | 54° |
| 2026-05-07 08:09 | 59.15601 | 44.38005 | 33114 ft | 506 kts | 54° |
| 2026-05-07 08:10 | 59.19407 | 44.49545 | 33115 ft | 505 kts | 54° |
| 2026-05-07 08:10 | 59.23199 | 44.61094 | 33114 ft | 505 kts | 54° |
| 2026-05-07 08:11 | 59.26970 | 44.72638 | 33120 ft | 504 kts | 54° |
| 2026-05-07 08:11 | 59.30735 | 44.84222 | 33115 ft | 504 kts | 54° |
| 2026-05-07 08:12 | 59.34489 | 44.95829 | 33126 ft | 505 kts | 54° |
| 2026-05-07 08:12 | 59.38239 | 45.07486 | 33112 ft | 506 kts | 54° |
| 2026-05-07 08:13 | 59.41989 | 45.19193 | 33118 ft | 507 kts | 54° |
| 2026-05-07 08:13 | 59.45734 | 45.30947 | 33111 ft | 508 kts | 54° |
| 2026-05-07 08:14 | 59.49478 | 45.42753 | 33110 ft | 509 kts | 55° |
| 2026-05-07 08:14 | 59.52928 | 45.54997 | 33059 ft | 515 kts | 65° |
| 2026-05-07 08:15 | 59.55499 | 45.68163 | 33096 ft | 515 kts | 68° |
| 2026-05-07 08:15 | 59.57973 | 45.81389 | 33104 ft | 513 kts | 68° |
| 2026-05-07 08:16 | 59.60495 | 45.94552 | 33109 ft | 512 kts | 67° |
| 2026-05-07 08:16 | 59.63036 | 46.07656 | 33103 ft | 510 kts | 67° |
| 2026-05-07 08:17 | 59.65562 | 46.20734 | 33108 ft | 509 kts | 67° |
| 2026-05-07 08:17 | 59.68068 | 46.33795 | 33126 ft | 509 kts | 67° |
| 2026-05-07 08:18 | 59.70559 | 46.46907 | 33110 ft | 509 kts | 68° |
| 2026-05-07 08:18 | 59.73034 | 46.60038 | 33107 ft | 509 kts | 68° |
| 2026-05-07 08:19 | 59.75500 | 46.73187 | 33121 ft | 510 kts | 68° |
| 2026-05-07 08:19 | 59.77959 | 46.86390 | 33116 ft | 511 kts | 68° |
| 2026-05-07 08:20 | 59.80408 | 46.99636 | 33110 ft | 512 kts | 68° |
| 2026-05-07 08:20 | 59.82853 | 47.12935 | 33109 ft | 512 kts | 68° |
| 2026-05-07 08:21 | 59.85271 | 47.26167 | 33112 ft | 513 kts | 68° |
| 2026-05-07 08:21 | 59.87696 | 47.39496 | 33120 ft | 512 kts | 68° |
| 2026-05-07 08:22 | 59.90109 | 47.52862 | 33111 ft | 513 kts | 68° |
| 2026-05-07 08:22 | 59.92507 | 47.66239 | 33107 ft | 512 kts | 68° |
| 2026-05-07 08:23 | 59.94890 | 47.79619 | 33105 ft | 512 kts | 68° |
| 2026-05-07 08:23 | 59.97259 | 47.93003 | 33106 ft | 511 kts | 69° |
| 2026-05-07 08:24 | 59.99623 | 48.06405 | 33107 ft | 512 kts | 69° |
| 2026-05-07 08:24 | 60.01975 | 48.19828 | 33111 ft | 512 kts | 69° |
| 2026-05-07 08:25 | 60.04314 | 48.33270 | 33110 ft | 512 kts | 69° |
| 2026-05-07 08:25 | 60.06639 | 48.46744 | 33106 ft | 513 kts | 69° |
| 2026-05-07 08:26 | 60.10123 | 48.67098 | 33150 ft | 520 kts | 69° |
| 2026-05-07 08:26 | 60.12467 | 48.80938 | 33119 ft | 528 kts | 69° |
| 2026-05-07 08:27 | 60.14831 | 48.95002 | 33114 ft | 534 kts | 69° |
| 2026-05-07 08:27 | 60.17190 | 49.09142 | 33090 ft | 535 kts | 70° |
| 2026-05-07 08:28 | 60.19538 | 49.23312 | 33088 ft | 533 kts | 70° |
| 2026-05-07 08:28 | 60.21755 | 49.37524 | 33085 ft | 533 kts | 71° |
| 2026-05-07 08:29 | 60.23875 | 49.51802 | 33085 ft | 532 kts | 71° |
| 2026-05-07 08:29 | 60.25987 | 49.66086 | 33084 ft | 532 kts | 71° |
| 2026-05-07 08:30 | 60.28086 | 49.80270 | 33093 ft | 532 kts | 71° |
| 2026-05-07 08:30 | 60.30191 | 49.94565 | 33081 ft | 532 kts | 72° |
| 2026-05-07 08:31 | 60.32281 | 50.08879 | 33081 ft | 533 kts | 72° |
| 2026-05-07 08:31 | 60.34358 | 50.23247 | 33071 ft | 533 kts | 72° |
| 2026-05-07 08:32 | 60.36418 | 50.37622 | 33068 ft | 533 kts | 72° |
| 2026-05-07 08:32 | 60.38465 | 50.52044 | 33066 ft | 534 kts | 72° |
| 2026-05-07 08:33 | 60.40498 | 50.66482 | 33063 ft | 534 kts | 72° |
| 2026-05-07 08:33 | 60.42519 | 50.80967 | 33072 ft | 535 kts | 72° |
| 2026-05-07 08:34 | 60.44524 | 50.95466 | 33052 ft | 534 kts | 72° |
| 2026-05-07 08:34 | 60.46512 | 51.09969 | 33051 ft | 534 kts | 73° |
| 2026-05-07 08:35 | 60.48483 | 51.24515 | 33052 ft | 535 kts | 73° |
| 2026-05-07 08:35 | 60.50429 | 51.39077 | 33079 ft | 535 kts | 73° |
| 2026-05-07 08:36 | 60.52364 | 51.53687 | 33060 ft | 536 kts | 73° |
| 2026-05-07 08:36 | 60.54286 | 51.68306 | 33051 ft | 537 kts | 73° |
| 2026-05-07 08:37 | 60.56211 | 51.82969 | 33052 ft | 537 kts | 73° |
| 2026-05-07 08:37 | 60.58135 | 51.97625 | 33041 ft | 537 kts | 73° |
| 2026-05-07 08:38 | 60.60047 | 52.12330 | 33049 ft | 538 kts | 73° |
| 2026-05-07 08:38 | 60.61940 | 52.27049 | 33066 ft | 538 kts | 73° |
| 2026-05-07 08:39 | 60.63818 | 52.41822 | 33049 ft | 538 kts | 74° |
| 2026-05-07 08:39 | 60.65667 | 52.56510 | 33045 ft | 539 kts | 74° |
| 2026-05-07 08:40 | 60.67513 | 52.71312 | 33036 ft | 538 kts | 74° |
| 2026-05-07 08:40 | 60.69339 | 52.86087 | 33046 ft | 536 kts | 74° |
| 2026-05-07 08:41 | 60.71143 | 53.00850 | 33050 ft | 536 kts | 74° |
| 2026-05-07 08:41 | 60.72929 | 53.15619 | 33047 ft | 536 kts | 74° |
| 2026-05-07 08:42 | 60.74699 | 53.30402 | 33049 ft | 535 kts | 74° |
| 2026-05-07 08:42 | 60.76454 | 53.45201 | 33093 ft | 535 kts | 75° |
| 2026-05-07 08:43 | 60.78198 | 53.60045 | 33051 ft | 537 kts | 75° |
| 2026-05-07 08:43 | 60.79964 | 53.74921 | 33035 ft | 538 kts | 74° |
| 2026-05-07 08:44 | 60.81759 | 53.89793 | 33048 ft | 539 kts | 74° |
| 2026-05-07 08:44 | 60.83541 | 54.04717 | 33030 ft | 539 kts | 75° |
| 2026-05-07 08:45 | 60.85300 | 54.19671 | 33065 ft | 540 kts | 75° |
| 2026-05-07 08:45 | 60.87046 | 54.34710 | 33047 ft | 542 kts | 75° |
| 2026-05-07 08:46 | 60.88781 | 54.49819 | 32969 ft | 544 kts | 75° |
| 2026-05-07 08:46 | 60.90497 | 54.64925 | 33022 ft | 543 kts | 75° |
| 2026-05-07 08:47 | 60.92195 | 54.80008 | 33031 ft | 542 kts | 75° |
| 2026-05-07 08:47 | 60.93877 | 54.95130 | 33026 ft | 543 kts | 75° |
| 2026-05-07 08:48 | 60.95543 | 55.10286 | 33034 ft | 543 kts | 75° |
| 2026-05-07 08:48 | 60.97193 | 55.25467 | 33018 ft | 544 kts | 75° |
| 2026-05-07 08:49 | 60.98828 | 55.40672 | 33024 ft | 544 kts | 76° |
| 2026-05-07 08:49 | 61.00447 | 55.55916 | 33020 ft | 545 kts | 76° |
| 2026-05-07 08:50 | 61.02053 | 55.71212 | 33023 ft | 546 kts | 76° |
| 2026-05-07 08:50 | 61.03634 | 55.86443 | 33014 ft | 547 kts | 76° |
| 2026-05-07 08:51 | 61.05210 | 56.01800 | 33006 ft | 547 kts | 76° |
| 2026-05-07 08:51 | 61.06515 | 56.14674 | 33018 ft | 547 kts | 76° |
| 2026-05-07 08:52 | 61.08061 | 56.30091 | 33060 ft | 548 kts | 77° |
| 2026-05-07 08:52 | 61.09589 | 56.45539 | 33013 ft | 550 kts | 77° |
| 2026-05-07 08:53 | 61.11105 | 56.61032 | 33000 ft | 551 kts | 77° |
| 2026-05-07 08:53 | 61.12606 | 56.76558 | 33004 ft | 551 kts | 77° |
| 2026-05-07 08:54 | 61.14093 | 56.92141 | 32996 ft | 552 kts | 77° |
| 2026-05-07 08:54 | 61.15560 | 57.07748 | 33007 ft | 553 kts | 77° |
| 2026-05-07 08:55 | 61.16975 | 57.23393 | 32994 ft | 553 kts | 81° |
| 2026-05-07 08:55 | 61.17749 | 57.39131 | 32999 ft | 553 kts | 85° |
| 2026-05-07 08:56 | 61.18271 | 57.55138 | 32983 ft | 553 kts | 86° |
| 2026-05-07 08:56 | 61.18810 | 57.71041 | 32988 ft | 553 kts | 85° |
| 2026-05-07 08:57 | 61.19397 | 57.86944 | 32979 ft | 554 kts | 85° |
| 2026-05-07 08:57 | 61.19987 | 58.02745 | 32984 ft | 553 kts | 85° |
| 2026-05-07 08:58 | 61.20564 | 58.18607 | 32972 ft | 552 kts | 85° |
| 2026-05-07 08:58 | 61.21109 | 58.34498 | 32970 ft | 551 kts | 85° |
| 2026-05-07 08:59 | 61.21631 | 58.50360 | 32978 ft | 551 kts | 86° |
| 2026-05-07 08:59 | 61.22137 | 58.66208 | 32970 ft | 551 kts | 86° |
| 2026-05-07 09:00 | 61.22626 | 58.82072 | 32962 ft | 551 kts | 86° |
| 2026-05-07 09:00 | 61.23097 | 58.97939 | 32966 ft | 551 kts | 86° |
| 2026-05-07 09:01 | 61.23549 | 59.13807 | 32955 ft | 551 kts | 86° |
| 2026-05-07 09:01 | 61.23981 | 59.29645 | 32953 ft | 551 kts | 87° |
| 2026-05-07 09:02 | 61.24395 | 59.45538 | 32941 ft | 551 kts | 87° |
| 2026-05-07 09:02 | 61.24792 | 59.61424 | 32937 ft | 551 kts | 87° |
| 2026-05-07 09:03 | 61.25168 | 59.77283 | 32933 ft | 549 kts | 86° |
| 2026-05-07 09:03 | 61.25526 | 59.93122 | 32935 ft | 549 kts | 87° |
| 2026-05-07 09:04 | 61.25866 | 60.08965 | 32931 ft | 549 kts | 87° |
| 2026-05-07 09:04 | 61.26187 | 60.24810 | 32931 ft | 549 kts | 87° |
| 2026-05-07 09:05 | 61.26488 | 60.40548 | 32917 ft | 549 kts | 87° |
| 2026-05-07 09:05 | 61.26774 | 60.56510 | 32929 ft | 549 kts | 88° |
| 2026-05-07 09:06 | 61.27040 | 60.72258 | 32922 ft | 549 kts | 88° |
| 2026-05-07 09:06 | 61.27285 | 60.88112 | 32964 ft | 549 kts | 88° |
| 2026-05-07 09:07 | 61.27513 | 61.04017 | 32917 ft | 551 kts | 88° |
| 2026-05-07 09:07 | 61.27725 | 61.19966 | 32859 ft | 551 kts | 88° |
| 2026-05-07 09:08 | 61.27921 | 61.35900 | 32890 ft | 553 kts | 88° |
| 2026-05-07 09:08 | 61.28112 | 61.51844 | 32897 ft | 550 kts | 88° |
| 2026-05-07 09:09 | 61.28295 | 61.67738 | 32953 ft | 549 kts | 88° |
| 2026-05-07 09:09 | 61.28458 | 61.83639 | 32896 ft | 550 kts | 89° |
| 2026-05-07 09:10 | 61.28601 | 61.99521 | 32889 ft | 550 kts | 89° |
| 2026-05-07 09:10 | 61.28724 | 62.15417 | 32892 ft | 550 kts | 89° |
| 2026-05-07 09:11 | 61.28829 | 62.31308 | 32892 ft | 550 kts | 89° |
| 2026-05-07 09:11 | 61.28916 | 62.47220 | 32902 ft | 550 kts | 89° |
| 2026-05-07 09:12 | 61.28986 | 62.63161 | 32879 ft | 551 kts | 89° |
| 2026-05-07 09:12 | 61.29037 | 62.79081 | 32869 ft | 549 kts | 90° |
| 2026-05-07 09:13 | 61.29070 | 62.94820 | 32869 ft | 548 kts | 90° |
| 2026-05-07 09:13 | 61.29086 | 63.10666 | 32870 ft | 547 kts | 90° |
| 2026-05-07 09:14 | 61.29084 | 63.26453 | 32893 ft | 547 kts | 90° |
| 2026-05-07 09:14 | 61.29064 | 63.42251 | 32867 ft | 547 kts | 90° |
| 2026-05-07 09:15 | 61.29028 | 63.58070 | 32871 ft | 546 kts | 90° |
| 2026-05-07 09:15 | 61.28542 | 63.73787 | 32877 ft | 544 kts | 101° |
| 2026-05-07 09:16 | 61.27170 | 63.89245 | 32871 ft | 544 kts | 103° |
| 2026-05-07 09:16 | 61.25713 | 64.04676 | 32868 ft | 545 kts | 103° |
| 2026-05-07 09:17 | 61.24305 | 64.20117 | 32856 ft | 543 kts | 103° |
| 2026-05-07 09:17 | 61.22932 | 64.35516 | 32860 ft | 541 kts | 103° |
| 2026-05-07 09:18 | 61.21557 | 64.50837 | 32854 ft | 540 kts | 103° |
| 2026-05-07 09:18 | 61.20162 | 64.66143 | 32856 ft | 540 kts | 103° |
| 2026-05-07 09:19 | 61.18745 | 64.81421 | 32854 ft | 539 kts | 103° |
| 2026-05-07 09:19 | 61.17314 | 64.96654 | 32872 ft | 539 kts | 103° |
| 2026-05-07 09:20 | 61.15862 | 65.11912 | 32856 ft | 540 kts | 104° |
| 2026-05-07 09:20 | 61.14394 | 65.27139 | 32830 ft | 538 kts | 104° |
| 2026-05-07 09:21 | 61.12924 | 65.42224 | 32840 ft | 538 kts | 104° |
| 2026-05-07 09:21 | 61.11417 | 65.57476 | 32845 ft | 538 kts | 104° |
| 2026-05-07 09:22 | 61.09914 | 65.72511 | 32848 ft | 538 kts | 104° |
| 2026-05-07 09:22 | 61.08372 | 65.87745 | 32840 ft | 538 kts | 104° |
| 2026-05-07 09:23 | 61.06833 | 66.02769 | 32847 ft | 539 kts | 105° |
| 2026-05-07 09:23 | 61.05266 | 66.17891 | 32839 ft | 539 kts | 105° |
| 2026-05-07 09:24 | 61.03683 | 66.32987 | 32776 ft | 537 kts | 105° |
| 2026-05-07 09:24 | 61.02094 | 66.47988 | 32821 ft | 534 kts | 105° |
| 2026-05-07 09:25 | 61.00494 | 66.62899 | 32841 ft | 532 kts | 105° |
| 2026-05-07 09:25 | 60.98880 | 66.77764 | 32829 ft | 531 kts | 105° |
| 2026-05-07 09:26 | 60.97253 | 66.92581 | 32827 ft | 530 kts | 105° |
| 2026-05-07 09:26 | 60.95613 | 67.07372 | 32852 ft | 531 kts | 106° |
| 2026-05-07 09:27 | 60.93952 | 67.22187 | 32819 ft | 531 kts | 106° |
| 2026-05-07 09:28 | 60.91434 | 67.44355 | 32810 ft | 529 kts | 106° |
| 2026-05-07 09:28 | 60.89754 | 67.58944 | 32819 ft | 528 kts | 106° |
| 2026-05-07 09:29 | 60.88040 | 67.73675 | 32821 ft | 527 kts | 107° |
| 2026-05-07 09:29 | 60.86318 | 67.88307 | 32817 ft | 526 kts | 107° |
| 2026-05-07 09:30 | 60.84599 | 68.02773 | 32813 ft | 525 kts | 107° |
| 2026-05-07 09:30 | 60.82855 | 68.17312 | 32815 ft | 525 kts | 107° |
| 2026-05-07 09:31 | 60.81094 | 68.31841 | 32817 ft | 526 kts | 107° |
| 2026-05-07 09:31 | 60.79298 | 68.46364 | 32740 ft | 526 kts | 107° |
| 2026-05-07 09:32 | 60.77516 | 68.60849 | 32800 ft | 523 kts | 107° |
| 2026-05-07 09:32 | 60.75726 | 68.75254 | 32802 ft | 522 kts | 107° |
| 2026-05-07 09:33 | 60.73921 | 68.89591 | 32801 ft | 520 kts | 107° |
| 2026-05-07 09:33 | 60.72100 | 69.03896 | 32806 ft | 520 kts | 108° |
| 2026-05-07 09:34 | 60.70265 | 69.18174 | 32807 ft | 519 kts | 108° |
| 2026-05-07 09:34 | 60.68418 | 69.32412 | 32803 ft | 519 kts | 108° |
| 2026-05-07 09:35 | 60.66554 | 69.46651 | 32800 ft | 519 kts | 108° |
| 2026-05-07 09:35 | 60.64677 | 69.60859 | 32799 ft | 519 kts | 108° |
| 2026-05-07 09:36 | 60.62781 | 69.75075 | 32795 ft | 520 kts | 109° |
| 2026-05-07 09:36 | 60.60868 | 69.89292 | 32789 ft | 521 kts | 109° |
| 2026-05-07 09:37 | 60.58939 | 70.03501 | 32779 ft | 520 kts | 109° |
| 2026-05-07 09:37 | 60.56997 | 70.17683 | 32773 ft | 520 kts | 109° |
| 2026-05-07 09:38 | 60.55043 | 70.31822 | 32766 ft | 520 kts | 109° |
| 2026-05-07 09:38 | 60.53071 | 70.45960 | 32759 ft | 520 kts | 109° |
| 2026-05-07 09:39 | 60.51087 | 70.60059 | 32719 ft | 519 kts | 109° |
| 2026-05-07 09:39 | 60.49111 | 70.73994 | 32751 ft | 517 kts | 109° |
| 2026-05-07 09:40 | 60.47111 | 70.87960 | 32747 ft | 515 kts | 109° |
| 2026-05-07 09:40 | 60.45100 | 71.01891 | 32744 ft | 515 kts | 109° |
| 2026-05-07 09:41 | 60.43078 | 71.15786 | 32740 ft | 514 kts | 110° |
| 2026-05-07 09:41 | 60.41388 | 71.27314 | 32734 ft | 514 kts | 110° |
| 2026-05-07 09:42 | 60.39329 | 71.41243 | 32735 ft | 514 kts | 110° |
| 2026-05-07 09:42 | 60.37267 | 71.55078 | 32728 ft | 513 kts | 110° |
| 2026-05-07 09:43 | 60.35212 | 71.68765 | 32695 ft | 512 kts | 110° |
| 2026-05-07 09:43 | 60.33135 | 71.82481 | 32709 ft | 511 kts | 110° |
| 2026-05-07 09:44 | 60.31031 | 71.96253 | 32736 ft | 510 kts | 110° |
| 2026-05-07 09:44 | 60.28942 | 72.09824 | 32715 ft | 510 kts | 110° |
| 2026-05-07 09:45 | 60.26825 | 72.23465 | 32722 ft | 510 kts | 110° |
| 2026-05-07 09:45 | 60.24697 | 72.37080 | 32732 ft | 509 kts | 110° |
| 2026-05-07 09:46 | 60.22560 | 72.50640 | 32711 ft | 508 kts | 111° |
| 2026-05-07 09:46 | 60.20412 | 72.64197 | 32702 ft | 507 kts | 111° |
| 2026-05-07 09:47 | 60.18256 | 72.77586 | 32708 ft | 502 kts | 109° |
| 2026-05-07 09:47 | 60.16123 | 72.90939 | 32732 ft | 504 kts | 109° |
| 2026-05-07 09:48 | 60.13969 | 73.04325 | 32706 ft | 503 kts | 110° |
| 2026-05-07 09:48 | 60.11798 | 73.17663 | 32708 ft | 504 kts | 110° |
| 2026-05-07 09:49 | 60.09585 | 73.30963 | 32721 ft | 502 kts | 112° |
| 2026-05-07 09:49 | 60.07323 | 73.44197 | 32714 ft | 503 kts | 111° |
| 2026-05-07 09:50 | 60.05120 | 73.57504 | 32724 ft | 504 kts | 111° |
| 2026-05-07 09:50 | 60.02889 | 73.70801 | 32670 ft | 504 kts | 111° |
| 2026-05-07 09:51 | 60.00642 | 73.84051 | 32696 ft | 503 kts | 111° |
| 2026-05-07 09:51 | 59.98384 | 73.97257 | 32698 ft | 502 kts | 111° |
| 2026-05-07 09:52 | 59.96114 | 74.10428 | 32707 ft | 502 kts | 111° |
| 2026-05-07 09:52 | 59.93829 | 74.23593 | 32695 ft | 502 kts | 112° |
| 2026-05-07 09:53 | 59.91532 | 74.36737 | 32689 ft | 502 kts | 112° |
| 2026-05-07 09:53 | 59.89221 | 74.49866 | 32694 ft | 502 kts | 112° |
| 2026-05-07 09:54 | 59.86899 | 74.62980 | 32693 ft | 502 kts | 112° |
| 2026-05-07 09:54 | 59.84566 | 74.76049 | 32689 ft | 501 kts | 112° |
| 2026-05-07 09:55 | 59.82219 | 74.89104 | 32680 ft | 501 kts | 112° |
| 2026-05-07 09:55 | 59.79864 | 75.02125 | 32687 ft | 501 kts | 112° |
| 2026-05-07 09:56 | 59.77492 | 75.15150 | 32687 ft | 501 kts | 112° |
| 2026-05-07 09:56 | 59.75115 | 75.28141 | 32688 ft | 502 kts | 112° |
| 2026-05-07 09:57 | 59.73018 | 75.41258 | 32693 ft | 503 kts | 109° |
| 2026-05-07 09:57 | 59.71063 | 75.54577 | 32688 ft | 504 kts | 108° |
| 2026-05-07 09:58 | 59.69075 | 75.67873 | 32687 ft | 504 kts | 109° |
| 2026-05-07 09:58 | 59.67030 | 75.81209 | 32683 ft | 503 kts | 109° |
| 2026-05-07 09:59 | 59.64990 | 75.94338 | 32687 ft | 502 kts | 109° |
| 2026-05-07 09:59 | 59.62923 | 76.07527 | 32693 ft | 502 kts | 109° |
| 2026-05-07 10:00 | 59.60846 | 76.20703 | 32696 ft | 502 kts | 109° |
| 2026-05-07 10:00 | 59.58760 | 76.33842 | 32695 ft | 502 kts | 109° |
| 2026-05-07 10:01 | 59.56663 | 76.46964 | 32709 ft | 502 kts | 109° |
| 2026-05-07 10:01 | 59.54535 | 76.60056 | 32704 ft | 501 kts | 110° |
| 2026-05-07 10:02 | 59.52379 | 76.73124 | 32703 ft | 501 kts | 110° |
| 2026-05-07 10:02 | 59.50221 | 76.86164 | 32688 ft | 501 kts | 110° |
| 2026-05-07 10:03 | 59.48055 | 76.99172 | 32710 ft | 499 kts | 110° |
| 2026-05-07 10:03 | 59.45896 | 77.12143 | 32721 ft | 499 kts | 110° |
| 2026-05-07 10:04 | 59.43739 | 77.25084 | 32719 ft | 498 kts | 110° |
| 2026-05-07 10:04 | 59.41569 | 77.38011 | 32727 ft | 498 kts | 110° |
| 2026-05-07 10:05 | 59.39385 | 77.50916 | 32723 ft | 498 kts | 110° |
| 2026-05-07 10:05 | 59.37187 | 77.63798 | 32726 ft | 498 kts | 110° |
| 2026-05-07 10:06 | 59.34980 | 77.76649 | 32747 ft | 498 kts | 110° |
| 2026-05-07 10:06 | 59.32759 | 77.89497 | 32737 ft | 498 kts | 110° |
| 2026-05-07 10:07 | 59.30524 | 78.02328 | 32737 ft | 497 kts | 110° |
| 2026-05-07 10:07 | 59.28283 | 78.15114 | 32746 ft | 497 kts | 110° |
| 2026-05-07 10:08 | 59.26026 | 78.27890 | 32750 ft | 497 kts | 110° |
| 2026-05-07 10:08 | 59.23760 | 78.40636 | 32753 ft | 497 kts | 110° |
| 2026-05-07 10:09 | 59.21497 | 78.53280 | 32748 ft | 497 kts | 110° |
| 2026-05-07 10:09 | 59.19187 | 78.66099 | 32763 ft | 497 kts | 111° |
| 2026-05-07 10:10 | 59.16881 | 78.78802 | 32755 ft | 497 kts | 111° |
| 2026-05-07 10:10 | 59.14576 | 78.91427 | 32746 ft | 498 kts | 111° |
| 2026-05-07 10:11 | 59.12242 | 79.04126 | 32756 ft | 498 kts | 111° |
| 2026-05-07 10:11 | 59.09897 | 79.16795 | 32763 ft | 498 kts | 111° |
| 2026-05-07 10:12 | 59.07538 | 79.29452 | 32769 ft | 499 kts | 111° |
| 2026-05-07 10:12 | 59.05160 | 79.42135 | 32774 ft | 499 kts | 111° |
| 2026-05-07 10:13 | 59.02769 | 79.54794 | 32777 ft | 500 kts | 111° |
| 2026-05-07 10:13 | 59.00363 | 79.67457 | 32778 ft | 500 kts | 111° |
| 2026-05-07 10:14 | 58.97949 | 79.80084 | 32784 ft | 500 kts | 111° |
| 2026-05-07 10:14 | 58.95517 | 79.92711 | 32783 ft | 500 kts | 111° |
| 2026-05-07 10:15 | 58.93073 | 80.05329 | 32784 ft | 500 kts | 111° |
| 2026-05-07 10:15 | 58.90618 | 80.17927 | 32787 ft | 501 kts | 111° |
| 2026-05-07 10:16 | 58.88148 | 80.30526 | 32793 ft | 501 kts | 112° |
| 2026-05-07 10:16 | 58.85649 | 80.43100 | 32795 ft | 501 kts | 112° |
| 2026-05-07 10:17 | 58.83123 | 80.55641 | 32795 ft | 501 kts | 112° |
| 2026-05-07 10:17 | 58.80591 | 80.68152 | 32789 ft | 501 kts | 112° |
| 2026-05-07 10:18 | 58.78066 | 80.80574 | 32796 ft | 501 kts | 112° |
| 2026-05-07 10:18 | 58.75513 | 80.93064 | 32793 ft | 501 kts | 112° |
| 2026-05-07 10:19 | 58.72947 | 81.05536 | 32777 ft | 501 kts | 112° |
| 2026-05-07 10:19 | 58.70371 | 81.17987 | 32813 ft | 501 kts | 112° |
| 2026-05-07 10:20 | 58.67792 | 81.30435 | 32806 ft | 501 kts | 112° |
| 2026-05-07 10:20 | 58.65207 | 81.42880 | 32806 ft | 502 kts | 112° |
| 2026-05-07 10:21 | 58.62612 | 81.55311 | 32817 ft | 502 kts | 112° |
| 2026-05-07 10:21 | 58.60002 | 81.67728 | 32819 ft | 502 kts | 113° |
| 2026-05-07 10:22 | 58.57377 | 81.80134 | 32817 ft | 502 kts | 113° |
| 2026-05-07 10:22 | 58.54744 | 81.92533 | 32885 ft | 505 kts | 112° |
| 2026-05-07 10:23 | 58.52106 | 82.05050 | 32788 ft | 503 kts | 113° |
| 2026-05-07 10:23 | 58.49436 | 82.17296 | 32831 ft | 498 kts | 113° |
| 2026-05-07 10:24 | 58.46762 | 82.29558 | 32848 ft | 501 kts | 113° |
| 2026-05-07 10:24 | 58.44076 | 82.41871 | 32843 ft | 503 kts | 113° |
| 2026-05-07 10:25 | 58.41374 | 82.54205 | 32853 ft | 505 kts | 113° |
| 2026-05-07 10:25 | 58.38652 | 82.66555 | 32843 ft | 505 kts | 113° |
| 2026-05-07 10:26 | 58.35919 | 82.78870 | 32852 ft | 505 kts | 113° |
| 2026-05-07 10:26 | 58.33173 | 82.91185 | 32856 ft | 505 kts | 113° |
| 2026-05-07 10:27 | 58.30885 | 83.01387 | 32852 ft | 504 kts | 114° |
| 2026-05-07 10:27 | 58.28125 | 83.13626 | 32848 ft | 504 kts | 114° |
| 2026-05-07 10:28 | 58.25352 | 83.25867 | 32865 ft | 504 kts | 114° |
| 2026-05-07 10:28 | 58.22572 | 83.38075 | 32867 ft | 504 kts | 114° |
| 2026-05-07 10:29 | 58.19778 | 83.50264 | 32876 ft | 504 kts | 114° |
| 2026-05-07 10:29 | 58.16967 | 83.62463 | 32878 ft | 504 kts | 114° |
| 2026-05-07 10:30 | 58.12735 | 83.80696 | 32876 ft | 504 kts | 114° |
| 2026-05-07 10:30 | 58.09897 | 83.92814 | 32899 ft | 502 kts | 114° |
| 2026-05-07 10:31 | 58.07069 | 84.04857 | 32882 ft | 501 kts | 114° |
| 2026-05-07 10:31 | 58.04238 | 84.16840 | 32888 ft | 499 kts | 114° |
| 2026-05-07 10:32 | 58.01402 | 84.28777 | 32901 ft | 498 kts | 114° |
| 2026-05-07 10:32 | 57.98558 | 84.40676 | 32913 ft | 498 kts | 114° |
| 2026-05-07 10:33 | 57.95703 | 84.52560 | 32926 ft | 498 kts | 114° |
| 2026-05-07 10:33 | 57.92827 | 84.64462 | 32918 ft | 499 kts | 114° |
| 2026-05-07 10:34 | 57.89952 | 84.76296 | 33309 ft | 496 kts | 114° |
| 2026-05-07 10:34 | 57.88515 | 84.82188 | 33729 ft | 493 kts | 114° |
| 2026-05-07 10:34 | 57.87090 | 84.88014 | 34085 ft | 490 kts | 114° |
| 2026-05-07 10:35 | 57.85668 | 84.93810 | 34393 ft | 488 kts | 114° |
| 2026-05-07 10:35 | 57.84265 | 84.99517 | 34650 ft | 487 kts | 114° |
| 2026-05-07 10:35 | 57.82843 | 85.05284 | 34834 ft | 487 kts | 114° |
| 2026-05-07 10:35 | 57.81401 | 85.11119 | 34927 ft | 489 kts | 114° |
| 2026-05-07 10:36 | 57.78535 | 85.22662 | 34944 ft | 492 kts | 114° |
| 2026-05-07 10:36 | 57.75645 | 85.34251 | 34934 ft | 490 kts | 114° |
| 2026-05-07 10:37 | 57.72753 | 85.45781 | 34938 ft | 488 kts | 114° |
| 2026-05-07 10:37 | 57.69864 | 85.57244 | 34943 ft | 487 kts | 115° |
| 2026-05-07 10:38 | 57.66973 | 85.68653 | 34937 ft | 485 kts | 115° |
| 2026-05-07 10:38 | 57.64078 | 85.80020 | 34954 ft | 483 kts | 115° |
| 2026-05-07 10:39 | 57.61186 | 85.91323 | 34945 ft | 483 kts | 115° |
| 2026-05-07 10:39 | 57.58282 | 86.02607 | 34934 ft | 482 kts | 115° |
| 2026-05-07 10:40 | 57.55370 | 86.13866 | 34948 ft | 482 kts | 115° |
| 2026-05-07 10:40 | 57.52448 | 86.25109 | 34959 ft | 483 kts | 115° |
| 2026-05-07 10:41 | 57.49505 | 86.36377 | 34967 ft | 485 kts | 115° |
| 2026-05-07 10:41 | 57.46537 | 86.47681 | 34954 ft | 488 kts | 115° |
| 2026-05-07 10:42 | 57.43552 | 86.58995 | 34959 ft | 488 kts | 115° |
| 2026-05-07 10:42 | 57.40552 | 86.70313 | 34959 ft | 489 kts | 115° |
| 2026-05-07 10:43 | 57.37544 | 86.81592 | 34956 ft | 489 kts | 115° |
| 2026-05-07 10:43 | 57.34525 | 86.92868 | 34954 ft | 488 kts | 115° |
| 2026-05-07 10:44 | 57.31517 | 87.04043 | 34973 ft | 488 kts | 115° |
| 2026-05-07 10:44 | 57.28461 | 87.15338 | 34961 ft | 487 kts | 116° |
| 2026-05-07 10:45 | 57.25426 | 87.26507 | 34961 ft | 486 kts | 116° |
| 2026-05-07 10:45 | 57.22388 | 87.37627 | 34969 ft | 484 kts | 116° |
| 2026-05-07 10:46 | 57.19348 | 87.48700 | 34967 ft | 483 kts | 116° |
| 2026-05-07 10:46 | 57.16326 | 87.59656 | 34967 ft | 482 kts | 116° |
| 2026-05-07 10:47 | 57.13256 | 87.70731 | 34977 ft | 482 kts | 116° |
| 2026-05-07 10:47 | 57.10223 | 87.81622 | 34969 ft | 481 kts | 116° |
| 2026-05-07 10:48 | 57.07161 | 87.92564 | 34964 ft | 481 kts | 116° |
| 2026-05-07 10:48 | 57.04073 | 88.03548 | 34982 ft | 480 kts | 116° |
| 2026-05-07 10:49 | 57.01014 | 88.14380 | 34977 ft | 481 kts | 116° |
| 2026-05-07 10:49 | 56.97922 | 88.25277 | 34996 ft | 482 kts | 116° |
| 2026-05-07 10:50 | 56.94814 | 88.36185 | 34976 ft | 483 kts | 116° |
| 2026-05-07 10:50 | 56.91699 | 88.47092 | 34980 ft | 483 kts | 115° |
| 2026-05-07 10:51 | 56.89403 | 88.58580 | 34990 ft | 480 kts | 105° |
| 2026-05-07 10:51 | 56.87491 | 88.70268 | 34977 ft | 480 kts | 105° |
| 2026-05-07 10:52 | 56.85559 | 88.81937 | 34981 ft | 479 kts | 105° |
| 2026-05-07 10:52 | 56.83582 | 88.93564 | 34975 ft | 479 kts | 106° |
| 2026-05-07 10:53 | 56.81580 | 89.05150 | 34976 ft | 478 kts | 106° |
| 2026-05-07 10:53 | 56.79568 | 89.16704 | 34979 ft | 477 kts | 106° |
| 2026-05-07 10:54 | 56.77546 | 89.28241 | 34979 ft | 477 kts | 106° |
| 2026-05-07 10:54 | 56.75521 | 89.39738 | 34977 ft | 476 kts | 106° |
| 2026-05-07 10:55 | 56.73485 | 89.51228 | 34979 ft | 477 kts | 106° |
| 2026-05-07 10:55 | 56.71436 | 89.62720 | 34978 ft | 477 kts | 106° |
| 2026-05-07 10:56 | 56.69378 | 89.74183 | 34978 ft | 477 kts | 107° |
| 2026-05-07 10:56 | 56.67308 | 89.85647 | 34980 ft | 477 kts | 107° |
| 2026-05-07 10:57 | 56.65225 | 89.97111 | 34975 ft | 478 kts | 107° |
| 2026-05-07 10:57 | 56.63131 | 90.08563 | 34982 ft | 478 kts | 107° |
| 2026-05-07 10:58 | 56.61028 | 90.20000 | 34975 ft | 477 kts | 107° |
| 2026-05-07 10:58 | 56.58915 | 90.31421 | 34978 ft | 477 kts | 107° |
| 2026-05-07 10:59 | 56.56794 | 90.42807 | 34977 ft | 476 kts | 107° |
| 2026-05-07 10:59 | 56.54668 | 90.54166 | 34978 ft | 475 kts | 107° |
| 2026-05-07 11:00 | 56.52531 | 90.65504 | 34992 ft | 475 kts | 107° |
| 2026-05-07 11:00 | 56.50386 | 90.76814 | 34984 ft | 476 kts | 107° |
| 2026-05-07 11:01 | 56.48224 | 90.88143 | 34979 ft | 476 kts | 108° |
| 2026-05-07 11:01 | 56.46058 | 90.99438 | 34980 ft | 475 kts | 108° |
| 2026-05-07 11:02 | 56.43884 | 91.10709 | 34978 ft | 474 kts | 108° |
| 2026-05-07 11:02 | 56.41703 | 91.21947 | 34979 ft | 474 kts | 108° |
| 2026-05-07 11:03 | 56.39517 | 91.33145 | 34981 ft | 473 kts | 108° |
| 2026-05-07 11:03 | 56.37316 | 91.44355 | 34985 ft | 473 kts | 108° |
| 2026-05-07 11:04 | 56.35110 | 91.55532 | 34985 ft | 473 kts | 108° |
| 2026-05-07 11:04 | 56.32895 | 91.66688 | 34986 ft | 473 kts | 108° |
| 2026-05-07 11:05 | 56.30667 | 91.77844 | 35004 ft | 473 kts | 108° |
| 2026-05-07 11:05 | 56.28434 | 91.88963 | 34987 ft | 473 kts | 108° |
| 2026-05-07 11:06 | 56.26185 | 92.00100 | 34995 ft | 473 kts | 108° |
| 2026-05-07 11:06 | 56.23928 | 92.11212 | 34993 ft | 473 kts | 109° |
| 2026-05-07 11:07 | 56.21664 | 92.22301 | 34993 ft | 473 kts | 109° |
| 2026-05-07 11:07 | 56.19387 | 92.33388 | 35014 ft | 473 kts | 109° |
| 2026-05-07 11:08 | 56.17110 | 92.44411 | 34999 ft | 474 kts | 109° |
| 2026-05-07 11:08 | 56.14808 | 92.55495 | 34994 ft | 474 kts | 109° |
| 2026-05-07 11:09 | 56.12483 | 92.66637 | 34992 ft | 474 kts | 109° |
| 2026-05-07 11:09 | 56.10178 | 92.77616 | 34988 ft | 473 kts | 109° |
| 2026-05-07 11:10 | 56.07852 | 92.88634 | 35000 ft | 473 kts | 109° |
| 2026-05-07 11:10 | 56.05515 | 92.99640 | 34991 ft | 473 kts | 109° |
| 2026-05-07 11:11 | 56.03173 | 93.10616 | 34986 ft | 472 kts | 110° |
| 2026-05-07 11:11 | 56.00821 | 93.21577 | 34991 ft | 472 kts | 110° |
| 2026-05-07 11:12 | 55.98462 | 93.32518 | 34986 ft | 472 kts | 110° |
| 2026-05-07 11:12 | 55.96494 | 93.41598 | 35001 ft | 472 kts | 110° |
| 2026-05-07 11:13 | 55.94124 | 93.52486 | 34992 ft | 472 kts | 110° |
| 2026-05-07 11:13 | 55.91734 | 93.63400 | 34989 ft | 472 kts | 110° |
| 2026-05-07 11:14 | 55.89341 | 93.74279 | 34991 ft | 472 kts | 110° |
| 2026-05-07 11:14 | 55.86937 | 93.85147 | 34982 ft | 472 kts | 110° |
| 2026-05-07 11:15 | 55.84521 | 93.96005 | 34993 ft | 472 kts | 110° |
| 2026-05-07 11:15 | 55.82097 | 94.06846 | 34989 ft | 472 kts | 110° |
| 2026-05-07 11:16 | 55.79660 | 94.17693 | 34984 ft | 472 kts | 110° |
| 2026-05-07 11:16 | 55.77213 | 94.28528 | 34981 ft | 472 kts | 111° |
| 2026-05-07 11:17 | 55.74760 | 94.39332 | 34983 ft | 472 kts | 111° |
| 2026-05-07 11:17 | 55.72297 | 94.50130 | 34989 ft | 472 kts | 111° |
| 2026-05-07 11:18 | 55.69818 | 94.60935 | 34974 ft | 472 kts | 111° |
| 2026-05-07 11:18 | 55.67337 | 94.71701 | 34974 ft | 472 kts | 111° |
| 2026-05-07 11:19 | 55.64848 | 94.82444 | 34979 ft | 472 kts | 111° |
| 2026-05-07 11:19 | 55.62323 | 94.93291 | 34984 ft | 480 kts | 112° |
| 2026-05-07 11:20 | 55.59754 | 95.04266 | 34979 ft | 485 kts | 112° |
| 2026-05-07 11:20 | 55.57155 | 95.15304 | 34976 ft | 486 kts | 112° |
| 2026-05-07 11:21 | 55.54550 | 95.26324 | 34974 ft | 487 kts | 112° |
| 2026-05-07 11:21 | 55.51934 | 95.37336 | 34973 ft | 486 kts | 112° |
| 2026-05-07 11:22 | 55.49311 | 95.48313 | 34982 ft | 485 kts | 112° |
| 2026-05-07 11:22 | 55.46681 | 95.59264 | 34986 ft | 484 kts | 112° |
| 2026-05-07 11:23 | 55.44066 | 95.70101 | 34985 ft | 483 kts | 113° |
| 2026-05-07 11:23 | 55.41426 | 95.80984 | 34977 ft | 482 kts | 113° |
| 2026-05-07 11:24 | 55.38788 | 95.91809 | 34980 ft | 482 kts | 113° |
| 2026-05-07 11:24 | 55.36136 | 96.02632 | 34973 ft | 482 kts | 113° |
| 2026-05-07 11:25 | 55.33476 | 96.13440 | 34983 ft | 482 kts | 114° |
| 2026-05-07 11:25 | 55.30803 | 96.24249 | 34980 ft | 482 kts | 114° |
| 2026-05-07 11:26 | 55.28126 | 96.35016 | 34974 ft | 482 kts | 114° |
| 2026-05-07 11:26 | 55.25434 | 96.45795 | 34974 ft | 482 kts | 114° |
| 2026-05-07 11:27 | 55.22736 | 96.56540 | 34980 ft | 482 kts | 114° |
| 2026-05-07 11:27 | 55.20029 | 96.67272 | 34974 ft | 482 kts | 114° |
| 2026-05-07 11:28 | 55.17311 | 96.77995 | 34969 ft | 482 kts | 115° |
| 2026-05-07 11:28 | 55.14583 | 96.88712 | 34973 ft | 482 kts | 115° |
| 2026-05-07 11:29 | 55.11842 | 96.99432 | 34973 ft | 483 kts | 115° |
| 2026-05-07 11:29 | 55.09093 | 97.10127 | 34969 ft | 483 kts | 115° |
| 2026-05-07 11:30 | 55.06393 | 97.20843 | 34964 ft | 483 kts | 114° |
| 2026-05-07 11:30 | 55.03723 | 97.31594 | 34963 ft | 483 kts | 114° |
| 2026-05-07 11:31 | 55.01043 | 97.42336 | 34974 ft | 483 kts | 114° |
| 2026-05-07 11:31 | 54.98345 | 97.53063 | 34963 ft | 484 kts | 115° |
| 2026-05-07 11:32 | 54.94274 | 97.69126 | 34959 ft | 483 kts | 115° |
| 2026-05-07 11:33 | 54.91547 | 97.79815 | 34963 ft | 483 kts | 115° |
| 2026-05-07 11:33 | 54.88816 | 97.90468 | 34955 ft | 483 kts | 115° |
| 2026-05-07 11:34 | 54.86072 | 98.01124 | 34966 ft | 483 kts | 115° |
| 2026-05-07 11:34 | 54.83324 | 98.11748 | 34971 ft | 483 kts | 115° |
| 2026-05-07 11:35 | 54.80562 | 98.22376 | 34967 ft | 484 kts | 115° |
| 2026-05-07 11:35 | 54.77788 | 98.32998 | 34949 ft | 484 kts | 115° |
| 2026-05-07 11:36 | 54.75003 | 98.43609 | 34961 ft | 483 kts | 115° |
| 2026-05-07 11:36 | 54.72215 | 98.54181 | 34952 ft | 483 kts | 115° |
| 2026-05-07 11:37 | 54.69422 | 98.64726 | 34944 ft | 483 kts | 116° |
| 2026-05-07 11:37 | 54.66616 | 98.75271 | 34939 ft | 482 kts | 116° |
| 2026-05-07 11:38 | 54.63823 | 98.85717 | 34949 ft | 482 kts | 116° |
| 2026-05-07 11:38 | 54.60984 | 98.96284 | 34942 ft | 482 kts | 116° |
| 2026-05-07 11:39 | 54.58174 | 99.06698 | 34937 ft | 482 kts | 116° |
| 2026-05-07 11:39 | 54.55336 | 99.17172 | 34935 ft | 483 kts | 116° |
| 2026-05-07 11:40 | 54.52483 | 99.27647 | 34933 ft | 484 kts | 116° |
| 2026-05-07 11:40 | 54.49613 | 99.38145 | 34931 ft | 485 kts | 116° |
| 2026-05-07 11:41 | 54.46728 | 99.48638 | 34929 ft | 486 kts | 116° |
| 2026-05-07 11:41 | 54.43824 | 99.59156 | 34929 ft | 487 kts | 116° |
| 2026-05-07 11:42 | 54.40910 | 99.69667 | 34911 ft | 488 kts | 117° |
| 2026-05-07 11:42 | 54.37982 | 99.80177 | 34931 ft | 488 kts | 116° |
| 2026-05-07 11:43 | 54.35038 | 99.90698 | 34914 ft | 490 kts | 117° |
| 2026-05-07 11:43 | 54.32130 | 100.01033 | 34911 ft | 489 kts | 117° |
| 2026-05-07 11:44 | 54.29178 | 100.11490 | 34903 ft | 488 kts | 117° |
| 2026-05-07 11:44 | 54.26203 | 100.21939 | 34902 ft | 487 kts | 117° |
| 2026-05-07 11:45 | 54.23245 | 100.32349 | 34899 ft | 486 kts | 117° |
| 2026-05-07 11:45 | 54.20279 | 100.42725 | 34895 ft | 486 kts | 118° |
| 2026-05-07 11:46 | 54.17296 | 100.53101 | 34895 ft | 486 kts | 118° |
| 2026-05-07 11:46 | 54.14305 | 100.63462 | 34881 ft | 486 kts | 118° |
| 2026-05-07 11:47 | 54.11311 | 100.73789 | 34894 ft | 486 kts | 118° |
| 2026-05-07 11:47 | 54.08307 | 100.84105 | 34887 ft | 486 kts | 118° |
| 2026-05-07 11:48 | 54.05298 | 100.94402 | 34886 ft | 485 kts | 118° |
| 2026-05-07 11:48 | 54.02276 | 101.04684 | 34887 ft | 486 kts | 118° |
| 2026-05-07 11:49 | 53.99242 | 101.14956 | 34872 ft | 486 kts | 118° |
| 2026-05-07 11:49 | 53.96206 | 101.25198 | 34868 ft | 486 kts | 118° |
| 2026-05-07 11:50 | 53.93156 | 101.35443 | 34890 ft | 485 kts | 118° |
| 2026-05-07 11:50 | 53.90104 | 101.45650 | 34876 ft | 486 kts | 118° |
| 2026-05-07 11:51 | 53.87035 | 101.55872 | 34888 ft | 486 kts | 118° |
| 2026-05-07 11:51 | 53.83959 | 101.66071 | 34875 ft | 487 kts | 118° |
| 2026-05-07 11:52 | 53.80873 | 101.76263 | 34872 ft | 487 kts | 118° |
| 2026-05-07 11:52 | 53.77793 | 101.86389 | 34892 ft | 487 kts | 118° |
| 2026-05-07 11:53 | 53.74684 | 101.96568 | 34888 ft | 488 kts | 118° |
| 2026-05-07 11:53 | 53.71584 | 102.06673 | 34878 ft | 488 kts | 118° |
| 2026-05-07 11:54 | 53.68434 | 102.16900 | 34890 ft | 488 kts | 119° |
| 2026-05-07 11:54 | 53.65319 | 102.26972 | 34886 ft | 488 kts | 119° |
| 2026-05-07 11:55 | 53.62176 | 102.37090 | 34895 ft | 487 kts | 119° |
| 2026-05-07 11:55 | 53.59021 | 102.47203 | 34866 ft | 488 kts | 119° |
| 2026-05-07 11:56 | 53.55863 | 102.57283 | 34900 ft | 487 kts | 119° |
| 2026-05-07 11:56 | 53.52699 | 102.67344 | 34900 ft | 488 kts | 119° |
| 2026-05-07 11:57 | 53.49515 | 102.77425 | 34901 ft | 487 kts | 119° |
| 2026-05-07 11:57 | 53.46335 | 102.87449 | 34900 ft | 487 kts | 119° |
| 2026-05-07 11:58 | 53.43658 | 102.95859 | 34903 ft | 487 kts | 119° |
| 2026-05-07 11:58 | 53.40462 | 103.05861 | 34908 ft | 486 kts | 119° |
| 2026-05-07 11:59 | 53.37266 | 103.15818 | 34904 ft | 485 kts | 119° |
| 2026-05-07 11:59 | 53.34064 | 103.25754 | 34913 ft | 485 kts | 120° |
| 2026-05-07 12:00 | 53.30854 | 103.35673 | 34912 ft | 485 kts | 120° |
| 2026-05-07 12:00 | 53.27638 | 103.45574 | 34915 ft | 484 kts | 119° |
| 2026-05-07 12:01 | 53.24415 | 103.55455 | 34917 ft | 485 kts | 120° |
| 2026-05-07 12:01 | 53.21597 | 103.64056 | 34914 ft | 480 kts | 120° |
| 2026-05-07 12:02 | 53.18421 | 103.73724 | 34916 ft | 473 kts | 120° |
| 2026-05-07 12:02 | 53.15259 | 103.83307 | 34923 ft | 472 kts | 120° |
| 2026-05-07 12:03 | 53.12089 | 103.92873 | 34926 ft | 471 kts | 120° |
| 2026-05-07 12:03 | 53.08883 | 104.02404 | 34932 ft | 473 kts | 120° |
| 2026-05-07 12:04 | 53.05700 | 104.12005 | 34932 ft | 475 kts | 120° |
| 2026-05-07 12:04 | 53.02488 | 104.21637 | 34933 ft | 478 kts | 120° |
| 2026-05-07 12:05 | 52.99244 | 104.31291 | 34931 ft | 480 kts | 120° |
| 2026-05-07 12:05 | 52.95995 | 104.40906 | 34931 ft | 482 kts | 120° |
| 2026-05-07 12:06 | 52.92707 | 104.50599 | 34933 ft | 483 kts | 120° |
| 2026-05-07 12:06 | 52.89404 | 104.60304 | 34933 ft | 483 kts | 120° |
| 2026-05-07 12:07 | 52.86101 | 104.69975 | 34924 ft | 483 kts | 120° |
| 2026-05-07 12:07 | 52.82781 | 104.79646 | 34930 ft | 483 kts | 120° |
| 2026-05-07 12:08 | 52.79465 | 104.89274 | 34929 ft | 482 kts | 120° |
| 2026-05-07 12:08 | 52.76147 | 104.98872 | 34879 ft | 481 kts | 120° |
| 2026-05-07 12:08 | 52.74472 | 105.03704 | 34320 ft | 486 kts | 121° |
| 2026-05-07 12:09 | 52.72794 | 105.08533 | 33708 ft | 484 kts | 121° |
| 2026-05-07 12:09 | 52.71122 | 105.13337 | 33097 ft | 482 kts | 121° |
| 2026-05-07 12:09 | 52.69461 | 105.18100 | 32668 ft | 476 kts | 121° |
| 2026-05-07 12:09 | 52.67815 | 105.22811 | 32202 ft | 472 kts | 120° |
| 2026-05-07 12:10 | 52.66187 | 105.27460 | 31748 ft | 467 kts | 120° |
| 2026-05-07 12:10 | 52.64569 | 105.32072 | 31301 ft | 463 kts | 120° |
| 2026-05-07 12:10 | 52.62961 | 105.36648 | 30866 ft | 459 kts | 120° |
| 2026-05-07 12:10 | 52.61376 | 105.41153 | 30446 ft | 455 kts | 120° |
| 2026-05-07 12:11 | 52.59786 | 105.45659 | 30009 ft | 451 kts | 120° |
| 2026-05-07 12:11 | 52.58216 | 105.50104 | 29514 ft | 447 kts | 120° |
| 2026-05-07 12:11 | 52.56663 | 105.54493 | 29087 ft | 442 kts | 120° |
| 2026-05-07 12:11 | 52.55122 | 105.58840 | 28660 ft | 437 kts | 120° |
| 2026-05-07 12:12 | 52.53600 | 105.63124 | 28216 ft | 433 kts | 120° |
| 2026-05-07 12:12 | 52.52088 | 105.67375 | 27763 ft | 430 kts | 119° |
| 2026-05-07 12:12 | 52.50586 | 105.71591 | 27330 ft | 427 kts | 119° |
| 2026-05-07 12:12 | 52.49090 | 105.75781 | 26915 ft | 424 kts | 119° |
| 2026-05-07 12:13 | 52.47605 | 105.79935 | 26485 ft | 420 kts | 119° |
| 2026-05-07 12:13 | 52.46130 | 105.84053 | 26067 ft | 418 kts | 119° |
| 2026-05-07 12:13 | 52.44664 | 105.88142 | 25633 ft | 415 kts | 119° |
| 2026-05-07 12:13 | 52.43202 | 105.92212 | 25246 ft | 413 kts | 119° |
| 2026-05-07 12:14 | 52.41747 | 105.96253 | 24828 ft | 410 kts | 119° |
| 2026-05-07 12:14 | 52.40302 | 106.00262 | 24410 ft | 408 kts | 118° |
| 2026-05-07 12:14 | 52.38861 | 106.04247 | 23992 ft | 405 kts | 119° |
| 2026-05-07 12:14 | 52.37439 | 106.08198 | 23598 ft | 402 kts | 118° |
| 2026-05-07 12:15 | 52.36016 | 106.12130 | 23090 ft | 400 kts | 118° |
| 2026-05-07 12:15 | 52.34603 | 106.16023 | 22662 ft | 398 kts | 119° |
| 2026-05-07 12:15 | 52.33194 | 106.19896 | 22252 ft | 394 kts | 119° |
| 2026-05-07 12:15 | 52.31798 | 106.23732 | 21840 ft | 391 kts | 119° |
| 2026-05-07 12:16 | 52.30429 | 106.27487 | 21435 ft | 388 kts | 119° |
| 2026-05-07 12:16 | 52.29034 | 106.31309 | 21025 ft | 385 kts | 119° |
| 2026-05-07 12:16 | 52.27667 | 106.35051 | 20632 ft | 382 kts | 120° |
| 2026-05-07 12:16 | 52.26327 | 106.38711 | 20235 ft | 380 kts | 120° |
| 2026-05-07 12:17 | 52.24977 | 106.42393 | 19852 ft | 377 kts | 120° |
| 2026-05-07 12:17 | 52.23634 | 106.46053 | 19458 ft | 374 kts | 120° |
| 2026-05-07 12:17 | 52.22302 | 106.49677 | 19085 ft | 372 kts | 120° |
| 2026-05-07 12:17 | 52.20974 | 106.53287 | 18685 ft | 370 kts | 120° |
| 2026-05-07 12:18 | 52.19655 | 106.56866 | 18278 ft | 367 kts | 120° |
| 2026-05-07 12:18 | 52.18342 | 106.60424 | 17838 ft | 365 kts | 120° |
| 2026-05-07 12:18 | 52.17041 | 106.63942 | 17423 ft | 362 kts | 120° |
| 2026-05-07 12:18 | 52.15749 | 106.67433 | 17026 ft | 359 kts | 120° |
| 2026-05-07 12:19 | 52.14458 | 106.70914 | 16647 ft | 356 kts | 120° |
| 2026-05-07 12:19 | 52.13184 | 106.74348 | 16236 ft | 354 kts | 121° |
| 2026-05-07 12:19 | 52.11914 | 106.77765 | 15855 ft | 351 kts | 121° |
| 2026-05-07 12:19 | 52.10651 | 106.81159 | 15482 ft | 349 kts | 121° |
| 2026-05-07 12:20 | 52.09397 | 106.84524 | 15102 ft | 347 kts | 121° |
| 2026-05-07 12:20 | 52.08148 | 106.87876 | 14730 ft | 345 kts | 121° |
| 2026-05-07 12:20 | 52.06905 | 106.91205 | 14351 ft | 344 kts | 120° |
| 2026-05-07 12:20 | 52.05665 | 106.94522 | 13972 ft | 343 kts | 121° |
| 2026-05-07 12:21 | 52.04428 | 106.97821 | 13575 ft | 342 kts | 121° |
| 2026-05-07 12:21 | 52.03352 | 107.01236 | 13132 ft | 340 kts | 105° |
| 2026-05-07 12:21 | 52.02897 | 107.04981 | 12737 ft | 336 kts | 98° |
| 2026-05-07 12:21 | 52.02517 | 107.08722 | 12322 ft | 335 kts | 98° |
| 2026-05-07 12:22 | 52.02138 | 107.12427 | 11943 ft | 332 kts | 98° |
| 2026-05-07 12:22 | 52.01753 | 107.16121 | 11564 ft | 330 kts | 98° |
| 2026-05-07 12:22 | 52.01362 | 107.19781 | 11197 ft | 329 kts | 99° |
| 2026-05-07 12:22 | 52.00966 | 107.23433 | 10829 ft | 327 kts | 99° |
| 2026-05-07 12:23 | 52.00568 | 107.27056 | 10519 ft | 324 kts | 99° |
| 2026-05-07 12:23 | 52.00178 | 107.30606 | 10379 ft | 314 kts | 99° |
| 2026-05-07 12:23 | 51.99797 | 107.34045 | 10255 ft | 306 kts | 99° |
| 2026-05-07 12:23 | 51.99425 | 107.37395 | 10131 ft | 297 kts | 99° |
| 2026-05-07 12:24 | 51.99062 | 107.40650 | 9968 ft | 290 kts | 100° |
| 2026-05-07 12:24 | 51.98701 | 107.43873 | 9688 ft | 289 kts | 100° |
| 2026-05-07 12:24 | 51.98343 | 107.47065 | 9397 ft | 287 kts | 100° |
| 2026-05-07 12:24 | 51.97986 | 107.50247 | 9115 ft | 286 kts | 100° |
| 2026-05-07 12:25 | 51.97630 | 107.53407 | 8824 ft | 284 kts | 100° |
| 2026-05-07 12:25 | 51.97275 | 107.56548 | 8551 ft | 282 kts | 100° |
| 2026-05-07 12:25 | 51.96923 | 107.59667 | 8276 ft | 281 kts | 100° |
| 2026-05-07 12:25 | 51.96571 | 107.62769 | 8009 ft | 279 kts | 100° |
| 2026-05-07 12:26 | 51.96220 | 107.65852 | 7727 ft | 277 kts | 100° |
| 2026-05-07 12:26 | 51.95872 | 107.68885 | 7429 ft | 270 kts | 100° |
| 2026-05-07 12:26 | 51.95462 | 107.71846 | 6923 ft | 270 kts | 112° |
| 2026-05-07 12:26 | 51.94360 | 107.74205 | 6713 ft | 257 kts | 143° |
| 2026-05-07 12:27 | 51.92806 | 107.75472 | 6460 ft | 249 kts | 165° |
| 2026-05-07 12:27 | 51.91124 | 107.76074 | 6080 ft | 247 kts | 168° |
| 2026-05-07 12:27 | 51.89436 | 107.76610 | 5647 ft | 246 kts | 169° |
| 2026-05-07 12:27 | 51.87774 | 107.77139 | 5209 ft | 241 kts | 170° |
| 2026-05-07 12:28 | 51.86164 | 107.76980 | 4899 ft | 230 kts | 205° |
| 2026-05-07 12:28 | 51.85058 | 107.75307 | 4624 ft | 216 kts | 247° |
| 2026-05-07 12:28 | 51.84674 | 107.73036 | 4567 ft | 208 kts | 260° |
| 2026-05-07 12:28 | 51.84421 | 107.70744 | 4492 ft | 209 kts | 262° |
| 2026-05-07 12:29 | 51.84186 | 107.68456 | 4359 ft | 210 kts | 260° |
| 2026-05-07 12:29 | 51.83899 | 107.66158 | 4089 ft | 210 kts | 259° |
| 2026-05-07 12:29 | 51.83596 | 107.63874 | 3828 ft | 206 kts | 259° |
| 2026-05-07 12:29 | 51.83299 | 107.61644 | 3545 ft | 199 kts | 259° |
| 2026-05-07 12:30 | 51.83019 | 107.59541 | 3290 ft | 187 kts | 259° |
| 2026-05-07 12:30 | 51.82756 | 107.57556 | 3061 ft | 173 kts | 259° |
| 2026-05-07 12:30 | 51.82515 | 107.55726 | 2852 ft | 158 kts | 260° |
| 2026-05-07 12:30 | 51.82287 | 107.53988 | 2641 ft | 160 kts | 261° |
| 2026-05-07 12:31 | 51.82039 | 107.52229 | 2415 ft | 159 kts | 259° |
| 2026-05-07 12:31 | 51.81805 | 107.50505 | 2201 ft | 159 kts | 259° |
| 2026-05-07 12:31 | 51.81590 | 107.48753 | 1978 ft | 158 kts | 259° |
| 2026-05-07 12:31 | 51.81361 | 107.47001 | 1786 ft | 156 kts | 259° |
| 2026-05-07 12:32 | 51.81148 | 107.45349 | 1684 ft | 142 kts | 258° |
| 2026-05-07 12:32 | 51.80971 | 107.43976 | 1681 ft | 102 kts | 258° |
| 2026-05-07 12:32 | 51.80856 | 107.43092 | 1682 ft | 61 kts | 258° |
| 2026-05-07 12:32 | 51.80799 | 107.42654 | 1684 ft | 23 kts | 258° |
| 2026-05-07 12:33 | 51.80735 | 107.42166 | 1687 ft | 22 kts | 258° |
| 2026-05-07 12:33 | 51.80704 | 107.41932 | 1685 ft | 21 kts | 257° |
| 2026-05-07 12:33 | 51.80677 | 107.41753 | 1681 ft | 9 kts | 246° |
| 2026-05-07 12:34 | 51.80633 | 107.41692 | 1687 ft | 9 kts | 193° |
| 2026-05-07 12:34 | 51.80570 | 107.41704 | 1687 ft | 10 kts | 167° |
| 2026-05-07 12:34 | 51.80509 | 107.41746 | 1686 ft | 10 kts | 112° |
| 2026-05-07 12:34 | 51.80519 | 107.41867 | 1683 ft | 12 kts | 77° |
| 2026-05-07 12:35 | 51.80538 | 107.42014 | 1682 ft | 15 kts | 78° |
| 2026-05-07 12:35 | 51.80560 | 107.42185 | 1682 ft | 16 kts | 78° |
| 2026-05-07 12:35 | 51.80585 | 107.42374 | 1686 ft | 18 kts | 78° |
| 2026-05-07 12:35 | 51.80613 | 107.42585 | 1681 ft | 19 kts | 78° |
| 2026-05-07 12:36 | 51.80640 | 107.42795 | 1688 ft | 19 kts | 77° |
| 2026-05-07 12:36 | 51.80670 | 107.43012 | 1690 ft | 21 kts | 77° |
| 2026-05-07 12:36 | 51.80700 | 107.43243 | 1684 ft | 22 kts | 78° |
| 2026-05-07 12:36 | 51.80734 | 107.43489 | 1683 ft | 22 kts | 77° |
| 2026-05-07 12:37 | 51.80767 | 107.43738 | 1682 ft | 23 kts | 79° |
| 2026-05-07 12:37 | 51.80759 | 107.43871 | 1684 ft | 11 kts | 140° |
| 2026-05-07 12:37 | 51.80684 | 107.43908 | 1684 ft | 12 kts | 168° |
| 2026-05-07 12:37 | 51.80617 | 107.43932 | 1681 ft | 6 kts | 159° |
| 2026-05-07 12:38 | 51.80597 | 107.43987 | 1686 ft | 6 kts | 93° |
| 2026-05-07 12:38 | 51.80598 | 107.44059 | 1684 ft | 7 kts | 116° |
| 2026-05-07 12:38 | 51.80557 | 107.44082 | 1681 ft | 5 kts | 168° |
| 2026-05-07 12:38 | 51.80528 | 107.44092 | 1685 ft | 2 kts | 168° |
| 2026-05-07 12:39 | 51.80514 | 107.44097 | 1687 ft | 0 kts | 168° |
| 2026-05-07 12:39 | 51.80513 | 107.44097 | 1681 ft | 0 kts | 168° |